Weather at Gateway East KNXV-TV Heliport

Public forecast

Using degrees Fahrenheit for public forecast. Weather courtesy of forecast.io.

Closest aviation weather report (METAR) to Gateway East KNXV-TV Heliport

Closest report is Phoenix Sky Harbor International Airport, 1.6 nm (2.9 km) SW.

2024/07/20 06:51 (retrieved 47 minutes ago)

KPHX 200651Z 22003KT 10SM FEW100 BKN160 BKN200 BKN250 38/14 A2982 RMK AO2 SLP072 T03830139 404440333

Closest aviation forecast (TAF) to Gateway East KNXV-TV Heliport

Closest forecast is Phoenix Sky Harbor International Airport, 1.6 nm (2.9 km) SW.

2024/07/20 06:28 Ammendment (retrieved 1 hour ago)

TAF AMD KPHX 200626Z 2006/2112 21006KT P6SM FEW100 SCT150 BKN250 FM200730 19011KT P6SM SCT150 BKN200 FM201000 VRB06KT P6SM FEW150 BKN250 FM201900 27008KT P6SM FEW150 FEW250 TEMPO 2020/2024 27010G20KT FM210300 VRB06KT P6SM SCT150 BKN250